Time;durP1;ratioP1;P1;durP2;ratioP2;P2;SDS_P1;SDS_P2;PMS_P1;PMS_P2;Temp;Humidity;BMP_temperature;BMP_pressure;BME280_temperature;BME280_humidity;BME280_pressure;Samples;Min_cycle;Max_cycle;Signal;HPM_P1;HPM_P2
2023/08/21 00:00:05;;;;;;;12.80;7.78;;;;;;;21.41;100.00;97127.59;5033114;28;20112;-66
2023/08/21 00:02:31;;;;;;;12.48;7.82;;;;;;;20.97;100.00;97122.03;5033145;28;20112;-67
2023/08/21 00:04:56;;;;;;;12.10;9.07;;;;;;;20.64;100.00;97115.47;5033386;28;20064;-68
2023/08/21 00:07:22;;;;;;;11.30;7.82;;;;;;;20.50;100.00;97110.91;5033335;28;20498;-67
2023/08/21 00:09:47;;;;;;;14.30;8.10;;;;;;;20.60;100.00;97112.72;5033484;28;20033;-66
2023/08/21 00:12:13;;;;;;;16.75;8.90;;;;;;;20.86;100.00;97104.75;5032995;28;20733;-66
2023/08/21 00:14:38;;;;;;;11.25;7.57;;;;;;;20.99;100.00;97110.47;5032633;28;20406;-67
2023/08/21 00:17:04;;;;;;;12.27;8.80;;;;;;;21.11;100.00;97115.41;5032643;28;20060;-65
2023/08/21 00:19:30;;;;;;;9.52;7.85;;;;;;;21.12;100.00;97107.84;5032647;28;20034;-66
2023/08/21 00:21:55;;;;;;;10.30;7.82;;;;;;;21.16;100.00;97114.16;5032601;28;20394;-66
2023/08/21 00:24:21;;;;;;;16.30;7.85;;;;;;;21.28;100.00;97113.50;5032210;28;20040;-67
2023/08/21 00:26:46;;;;;;;13.65;7.85;;;;;;;21.35;100.00;97107.78;5032514;28;20056;-67
2023/08/21 00:29:11;;;;;;;12.25;8.13;;;;;;;21.34;100.00;97111.03;5032602;28;20033;-67
2023/08/21 00:31:37;;;;;;;11.27;7.90;;;;;;;21.28;100.00;97112.72;5031142;28;20475;-66
2023/08/21 00:34:02;;;;;;;10.88;7.55;;;;;;;21.25;100.00;97111.59;5030974;28;20528;-66
2023/08/21 00:36:28;;;;;;;15.73;8.10;;;;;;;21.28;100.00;97110.72;5032370;28;20029;-67
2023/08/21 00:38:53;;;;;;;14.25;7.88;;;;;;;21.28;100.00;97107.91;5032477;28;20041;-66
2023/08/21 00:41:18;;;;;;;12.48;7.60;;;;;;;21.24;100.00;97112.78;5042478;28;20037;-67
2023/08/21 00:43:44;;;;;;;11.18;8.23;;;;;;;21.18;100.00;97106.16;5032554;28;20025;-66
2023/08/21 00:46:10;;;;;;;13.38;8.23;;;;;;;21.10;100.00;97101.91;5032704;28;20498;-67
2023/08/21 00:48:35;;;;;;;10.93;8.10;;;;;;;21.08;100.00;97101.56;5032304;28;20061;-67
2023/08/21 00:51:02;;;;;;;18.25;8.18;;;;;;;20.88;100.00;97098.75;5032183;28;20067;-65
2023/08/21 00:53:27;;;;;;;14.38;7.85;;;;;;;20.61;100.00;97097.59;5031800;28;20108;-66
2023/08/21 00:55:53;;;;;;;11.80;8.38;;;;;;;20.43;100.00;97097.88;5030828;28;20029;-66
2023/08/21 00:58:19;;;;;;;13.30;8.30;;;;;;;20.44;100.00;97102.25;5031054;28;20026;-66
2023/08/21 01:00:47;;;;;;;10.77;7.97;;;;;;;20.59;100.00;97093.66;5032406;28;20489;-66
2023/08/21 01:03:13;;;;;;;11.23;7.95;;;;;;;20.74;100.00;97097.00;5031916;28;20069;-66
2023/08/21 01:05:38;;;;;;;11.35;7.72;;;;;;;20.85;100.00;97100.41;5032041;28;20040;-66
2023/08/21 01:08:35;;;;;;;11.02;7.53;;;;;;;20.89;100.00;97097.56;5032069;28;20060;-66
2023/08/21 01:11:20;;;;;;;11.75;8.20;;;;;;;20.92;100.00;97099.47;5031783;28;20463;-65
2023/08/21 01:14:22;;;;;;;13.15;7.75;;;;;;;20.87;100.00;97109.13;5030651;28;20029;-65
2023/08/21 01:16:55;;;;;;;14.52;7.82;;;;;;;20.86;100.00;97117.88;5031940;28;20033;-66
2023/08/21 01:19:35;;;;;;;10.52;7.43;;;;;;;20.79;100.00;97116.00;5031956;28;20139;-65
2023/08/21 01:22:01;;;;;;;12.32;9.02;;;;;;;20.73;100.00;97118.50;5032204;28;20040;-64
2023/08/21 01:24:26;;;;;;;13.32;9.38;;;;;;;20.58;100.00;97114.34;5032306;28;20489;-65
2023/08/21 01:26:51;;;;;;;10.85;8.27;;;;;;;20.67;100.00;97120.19;5032497;28;20083;-67
2023/08/21 01:29:17;;;;;;;13.27;8.90;;;;;;;20.78;100.00;97126.38;5031726;28;20501;-65
2023/08/21 01:31:50;;;;;;;12.30;8.45;;;;;;;20.83;100.00;97121.50;5030801;28;20026;-65
2023/08/21 01:34:16;;;;;;;14.60;8.63;;;;;;;20.84;100.00;97126.66;5032013;28;20049;-65
2023/08/21 01:36:43;;;;;;;15.25;9.70;;;;;;;20.92;100.00;97130.09;5032578;28;20044;-66
2023/08/21 01:39:09;;;;;;;10.13;8.65;;;;;;;20.91;100.00;97120.19;5031891;28;20029;-66
2023/08/21 01:41:34;;;;;;;13.93;8.35;;;;;;;20.89;100.00;97119.81;5030699;28;20486;-65
2023/08/21 01:43:59;;;;;;;15.88;8.30;;;;;;;20.84;100.00;97120.31;5031583;28;20034;-66
2023/08/21 01:46:25;;;;;;;10.45;7.57;;;;;;;20.79;100.00;97124.34;5031789;28;20029;-65
2023/08/21 01:48:50;;;;;;;11.02;8.07;;;;;;;20.67;100.00;97124.97;5031910;28;20033;-66
2023/08/21 01:51:15;;;;;;;12.05;9.52;;;;;;;20.42;100.00;97115.03;5033216;28;20029;-66
2023/08/21 01:53:41;;;;;;;14.82;9.38;;;;;;;20.36;100.00;97113.91;5035243;28;20032;-66
2023/08/21 01:56:06;;;;;;;13.05;8.77;;;;;;;20.34;100.00;97113.53;5035391;28;20422;-66
2023/08/21 01:58:32;;;;;;;14.95;8.43;;;;;;;20.41;100.00;97119.78;5035461;28;20033;-66
2023/08/21 02:00:57;;;;;;;14.40;9.10;;;;;;;20.44;100.00;97120.94;5035547;28;20025;-66
2023/08/21 02:03:25;;;;;;;14.30;8.65;;;;;;;20.45;100.00;97122.50;5035107;28;20032;-65
2023/08/21 02:05:51;;;;;;;12.38;8.43;;;;;;;20.41;100.00;97119.00;5034140;28;20390;-66
2023/08/21 02:08:18;;;;;;;13.20;8.63;;;;;;;20.35;100.00;97117.91;5035272;28;20037;-66
2023/08/21 02:11:01;;;;;;;12.77;8.13;;;;;;;20.38;100.00;97122.63;5035196;28;20552;-66
2023/08/21 02:13:27;;;;;;;15.70;9.07;;;;;;;20.39;100.00;97118.63;5038943;28;20532;-66
2023/08/21 02:15:52;;;;;;;15.73;8.60;;;;;;;20.37;100.00;97121.06;5036243;28;20037;-66
2023/08/21 02:18:18;;;;;;;14.10;8.30;;;;;;;20.40;100.00;97131.31;5036162;28;20035;-65
2023/08/21 02:20:43;;;;;;;19.02;8.93;;;;;;;20.37;100.00;97130.19;5034671;28;20029;-66
2023/08/21 02:23:09;;;;;;;11.02;8.70;;;;;;;20.38;100.00;97126.19;5035667;28;20085;-66
2023/08/21 02:25:34;;;;;;;14.70;8.82;;;;;;;20.22;100.00;97121.28;5035879;28;20026;-66
2023/08/21 02:28:00;;;;;;;13.60;8.13;;;;;;;20.13;100.00;97123.81;5035112;28;20033;-66
2023/08/21 02:30:27;;;;;;;14.20;8.82;;;;;;;20.12;100.00;97124.22;5035219;28;20467;-65
2023/08/21 02:32:52;;;;;;;12.43;9.80;;;;;;;19.93;100.00;97117.31;5034803;28;20030;-65
2023/08/21 02:35:18;;;;;;;12.85;9.95;;;;;;;19.48;100.00;97129.38;5034978;28;20478;-66
2023/08/21 02:37:43;;;;;;;16.45;10.85;;;;;;;19.27;100.00;97128.44;5034966;28;20033;-66
2023/08/21 02:40:09;;;;;;;17.80;11.30;;;;;;;19.19;100.00;97135.25;5039407;28;20402;-65
2023/08/21 02:42:35;;;;;;;19.10;11.65;;;;;;;19.12;100.00;97140.13;5034448;28;20029;-66
2023/08/21 02:45:03;;;;;;;15.27;11.45;;;;;;;19.06;100.00;97131.44;5034601;28;20100;-66
2023/08/21 02:47:29;;;;;;;15.93;10.88;;;;;;;19.07;100.00;97133.81;5034434;28;20451;-66
2023/08/21 02:49:54;;;;;;;13.80;9.80;;;;;;;19.12;100.00;97134.56;5034376;28;20037;-66
2023/08/21 02:52:20;;;;;;;15.25;9.65;;;;;;;19.24;100.00;97139.59;5034229;28;20022;-66
2023/08/21 02:54:45;;;;;;;15.18;10.02;;;;;;;19.32;100.00;97138.31;5034485;28;20065;-65
2023/08/21 02:57:11;;;;;;;17.10;9.57;;;;;;;19.53;100.00;97136.47;5034373;28;20033;-66
2023/08/21 02:59:36;;;;;;;14.82;9.05;;;;;;;19.65;100.00;97139.50;5034470;28;20033;-66
2023/08/21 03:02:01;;;;;;;14.20;9.18;;;;;;;19.84;100.00;97140.06;5033574;28;20112;-65
2023/08/21 03:04:27;;;;;;;13.98;8.95;;;;;;;19.93;100.00;97143.13;5033648;28;20083;-65
2023/08/21 03:06:52;;;;;;;16.20;9.18;;;;;;;19.96;100.00;97131.19;5034243;28;20025;-66
2023/08/21 03:09:18;;;;;;;13.73;9.77;;;;;;;19.92;100.00;97136.00;5034258;28;20112;-65
2023/08/21 03:11:43;;;;;;;15.27;9.43;;;;;;;19.87;100.00;97136.47;5034200;28;20052;-66
2023/08/21 03:14:08;;;;;;;17.17;9.85;;;;;;;19.81;100.00;97138.16;5032603;28;20029;-66
2023/08/21 03:16:34;;;;;;;12.95;10.13;;;;;;;19.78;100.00;97138.97;5034135;28;20025;-65
2023/08/21 03:19:00;;;;;;;13.60;9.80;;;;;;;19.68;100.00;97129.56;5034086;28;20033;-65
2023/08/21 03:21:26;;;;;;;17.83;10.30;;;;;;;19.67;100.00;97134.31;5032637;28;20029;-66
2023/08/21 03:23:55;;;;;;;14.32;11.18;;;;;;;19.73;100.00;97131.88;5033476;28;20032;-66
2023/08/21 03:26:21;;;;;;;16.98;10.70;;;;;;;19.81;100.00;97133.38;5033645;28;20467;-66
2023/08/21 03:28:47;;;;;;;17.00;11.32;;;;;;;19.74;100.00;97127.91;5033518;28;20037;-66
2023/08/21 03:31:12;;;;;;;18.77;12.32;;;;;;;19.54;100.00;97129.75;5033518;28;20032;-66
2023/08/21 03:33:37;;;;;;;19.67;11.52;;;;;;;19.37;100.00;97137.84;5032033;28;20033;-66
2023/08/21 03:36:03;;;;;;;16.00;13.18;;;;;;;19.25;100.00;97130.84;5033371;28;20033;-66
2023/08/21 03:38:28;;;;;;;18.20;12.57;;;;;;;19.15;100.00;97131.75;5033378;28;20421;-66
2023/08/21 03:40:54;;;;;;;15.30;12.15;;;;;;;19.10;100.00;97134.97;5033489;28;20030;-66
2023/08/21 03:43:19;;;;;;;18.70;12.32;;;;;;;19.16;100.00;97132.53;5033028;28;20104;-66
2023/08/21 03:45:44;;;;;;;15.45;11.65;;;;;;;19.25;100.00;97127.28;5033228;28;20029;-66
2023/08/21 03:48:10;;;;;;;15.52;11.07;;;;;;;19.32;100.00;97134.72;5033423;28;20101;-65
2023/08/21 03:50:35;;;;;;;16.67;10.95;;;;;;;19.23;100.00;97133.25;5033123;28;20483;-66
2023/08/21 03:53:01;;;;;;;16.17;12.20;;;;;;;19.19;100.00;97142.81;5032833;28;20029;-66
2023/08/21 03:55:26;;;;;;;16.88;11.85;;;;;;;19.13;100.00;97145.25;5033145;28;20072;-66
2023/08/21 03:57:52;;;;;;;15.45;11.60;;;;;;;19.11;100.00;97153.22;5033464;28;20065;-66
2023/08/21 04:00:17;;;;;;;17.80;10.95;;;;;;;19.03;100.00;97154.47;5033076;28;20029;-66
2023/08/21 04:02:42;;;;;;;12.50;9.82;;;;;;;18.97;100.00;97151.34;5032896;28;20065;-66
2023/08/21 04:05:10;;;;;;;14.85;11.63;;;;;;;18.95;100.00;97159.31;5033196;28;20047;-66
2023/08/21 04:07:35;;;;;;;14.27;10.20;;;;;;;18.91;100.00;97162.13;5031688;28;20029;-66
2023/08/21 04:10:01;;;;;;;15.27;11.57;;;;;;;18.66;100.00;97161.53;5033124;28;20097;-65
2023/08/21 04:12:27;;;;;;;17.27;10.45;;;;;;;18.63;100.00;97156.78;5033159;28;20033;-66
2023/08/21 04:14:52;;;;;;;18.42;10.68;;;;;;;18.63;100.00;97162.34;5033267;28;20510;-66
2023/08/21 04:17:22;;;;;;;18.02;10.38;;;;;;;18.71;100.00;97172.19;5032924;28;20030;-65
2023/08/21 04:19:47;;;;;;;15.32;10.05;;;;;;;18.90;100.00;97166.09;5032584;28;20112;-66
2023/08/21 04:22:13;;;;;;;13.18;10.25;;;;;;;18.99;100.00;97164.84;5032228;28;20544;-66
2023/08/21 04:24:39;;;;;;;18.23;12.15;;;;;;;18.89;100.00;97166.53;5031150;28;20035;-66
2023/08/21 04:27:05;;;;;;;17.73;12.57;;;;;;;18.84;100.00;97166.97;5032504;28;20104;-66
2023/08/21 04:29:30;;;;;;;17.17;11.73;;;;;;;18.79;100.00;97168.16;5032553;28;20032;-65
2023/08/21 04:31:55;;;;;;;16.17;12.77;;;;;;;18.63;100.00;97162.34;5031218;28;20083;-66
2023/08/21 04:34:21;;;;;;;19.85;13.07;;;;;;;18.40;100.00;97166.50;5032032;28;20040;-66
2023/08/21 04:36:46;;;;;;;17.13;13.75;;;;;;;18.41;100.00;97167.28;5032261;28;20505;-66
2023/08/21 04:39:12;;;;;;;18.90;14.15;;;;;;;18.42;100.00;97166.88;5030868;28;20033;-66
2023/08/21 04:41:39;;;;;;;17.55;13.05;;;;;;;18.52;100.00;97171.53;5032152;28;20038;-66
2023/08/21 04:44:06;;;;;;;15.68;12.70;;;;;;;18.62;100.00;97163.53;5032110;28;20097;-66
2023/08/21 04:46:31;;;;;;;15.27;12.52;;;;;;;18.67;100.00;97179.72;5032792;28;20034;-65
2023/08/21 04:48:57;;;;;;;15.88;11.23;;;;;;;18.75;100.00;97169.38;5032249;28;20041;-66
2023/08/21 04:51:22;;;;;;;19.83;13.77;;;;;;;18.87;100.00;97166.13;5032424;28;20108;-66
2023/08/21 04:53:48;;;;;;;15.68;12.60;;;;;;;18.95;100.00;97175.19;5032182;28;20441;-66
2023/08/21 04:56:13;;;;;;;14.52;10.50;;;;;;;19.21;100.00;97176.50;5032114;28;20061;-66
2023/08/21 04:58:38;;;;;;;14.95;10.38;;;;;;;19.48;100.00;97176.59;5031697;28;20036;-66
2023/08/21 05:01:04;;;;;;;13.30;10.90;;;;;;;19.73;100.00;97178.31;5031905;28;20037;-66
2023/08/21 05:03:30;;;;;;;18.50;10.52;;;;;;;19.89;100.00;97181.31;5031543;28;20069;-66
2023/08/21 05:05:56;;;;;;;18.55;12.13;;;;;;;19.72;100.00;97185.88;5031990;28;20162;-67
2023/08/21 05:08:26;;;;;;;18.00;12.52;;;;;;;19.68;100.00;97190.69;5032362;28;20394;-66
2023/08/21 05:11:01;;;;;;;17.25;12.75;;;;;;;19.57;100.00;97182.47;5032462;28;20437;-66
2023/08/21 05:13:27;;;;;;;19.95;12.38;;;;;;;19.51;100.00;97188.91;5031773;28;20036;-66
2023/08/21 05:15:56;;;;;;;17.88;12.27;;;;;;;20.05;100.00;97189.03;5032468;28;20033;-68
2023/08/21 05:18:23;;;;;;;17.77;13.00;;;;;;;20.71;100.00;97187.72;5034295;28;20057;-69
2023/08/21 05:20:49;;;;;;;18.33;11.40;;;;;;;21.36;100.00;97192.94;5034891;28;20040;-66
2023/08/21 05:23:14;;;;;;;13.73;10.60;;;;;;;21.92;100.00;97197.06;5033464;28;20025;-67
2023/08/21 05:25:40;;;;;;;16.83;10.27;;;;;;;22.20;100.00;97201.28;5033624;28;20059;-67
2023/08/21 05:28:06;;;;;;;14.02;11.20;;;;;;;22.39;100.00;97199.66;5037334;28;20231;-67
2023/08/21 05:30:32;;;;;;;24.40;11.95;;;;;;;22.58;100.00;97203.63;5036737;28;20029;-68
2023/08/21 05:32:57;;;;;;;15.82;9.60;;;;;;;23.63;100.00;97207.38;5036552;28;20449;-67
2023/08/21 05:35:23;;;;;;;14.45;9.13;;;;;;;24.63;100.00;97208.50;5036237;28;20030;-67
2023/08/21 05:37:48;;;;;;;12.43;9.02;;;;;;;25.26;100.00;97213.25;5036221;28;20033;-68
2023/08/21 05:40:14;;;;;;;15.20;8.95;;;;;;;25.90;95.72;97217.84;5036437;28;20379;-67
2023/08/21 05:42:39;;;;;;;12.70;8.02;;;;;;;26.49;92.44;97226.47;5036732;28;20048;-65
2023/08/21 05:45:05;;;;;;;13.15;8.70;;;;;;;26.73;86.72;97226.75;5035948;28;20475;-65
2023/08/21 05:47:31;;;;;;;11.10;7.30;;;;;;;27.30;82.93;97228.50;5035949;28;20188;-66
2023/08/21 05:49:56;;;;;;;14.80;7.63;;;;;;;27.71;78.86;97232.72;5035560;28;20132;-68
2023/08/21 05:52:22;;;;;;;12.95;8.25;;;;;;;27.92;76.01;97233.84;5034725;28;20036;-66
2023/08/21 05:54:48;;;;;;;14.63;8.20;;;;;;;27.93;77.91;97235.44;5035115;28;20033;-66
2023/08/21 05:57:13;;;;;;;12.73;7.80;;;;;;;28.33;72.79;97239.28;5035203;28;20036;-65
2023/08/21 05:59:44;;;;;;;10.25;7.57;;;;;;;28.66;71.15;97239.34;5033752;28;20030;-66
2023/08/21 06:02:10;;;;;;;12.60;8.27;;;;;;;27.89;77.22;97236.81;5034730;28;20406;-65
2023/08/21 06:04:35;;;;;;;11.35;7.95;;;;;;;28.20;76.17;97240.25;5033830;28;20029;-66
2023/08/21 06:07:01;;;;;;;11.15;8.02;;;;;;;27.82;78.52;97240.72;5035526;28;20112;-67
2023/08/21 06:09:29;;;;;;;14.23;7.97;;;;;;;28.34;73.83;97252.09;5035214;28;20091;-66
2023/08/21 06:11:54;;;;;;;12.60;7.72;;;;;;;29.69;68.76;97245.97;5035125;28;20037;-68
2023/08/21 06:14:20;;;;;;;11.07;7.00;;;;;;;31.47;59.51;97262.09;5035047;28;20057;-67
2023/08/21 06:16:45;;;;;;;10.40;6.78;;;;;;;32.51;53.89;97264.34;5034530;28;20060;-67
2023/08/21 06:19:11;;;;;;;9.88;6.60;;;;;;;32.97;51.81;97274.00;5034524;28;20060;-67
2023/08/21 06:21:36;;;;;;;11.18;6.22;;;;;;;33.34;50.39;97271.19;5034628;28;20111;-67
2023/08/21 06:24:02;;;;;;;11.88;7.43;;;;;;;32.51;51.29;97263.56;5034444;28;20469;-67
2023/08/21 06:26:27;;;;;;;11.25;6.93;;;;;;;33.59;48.96;97273.66;5034515;28;20044;-67
2023/08/21 06:28:52;;;;;;;11.43;6.80;;;;;;;34.18;47.14;97272.09;5033314;28;20495;-67
2023/08/21 06:31:18;;;;;;;9.10;6.40;;;;;;;34.28;47.00;97270.56;5034169;28;20033;-66
2023/08/21 06:33:43;;;;;;;15.52;7.22;;;;;;;33.48;47.58;97275.13;5034722;28;20030;-65
2023/08/21 06:36:09;;;;;;;9.88;7.53;;;;;;;30.87;57.53;97267.16;5035310;28;20651;-66
2023/08/21 06:38:34;;;;;;;13.40;8.07;;;;;;;30.95;56.83;97267.53;5030862;28;20540;-66
2023/08/21 06:41:00;;;;;;;14.25;7.90;;;;;;;32.64;51.75;97277.38;5033876;28;20026;-66
2023/08/21 06:43:25;;;;;;;15.48;8.35;;;;;;;32.86;49.57;97276.75;5033718;28;20034;-66
2023/08/21 06:45:51;;;;;;;17.05;7.40;;;;;;;32.21;52.31;97266.63;5034132;28;20386;-67
2023/08/21 06:48:18;;;;;;;14.10;6.22;;;;;;;33.35;49.02;97277.66;5034017;28;20072;-66
2023/08/21 06:50:43;;;;;;;9.10;6.32;;;;;;;34.26;45.86;97285.28;5033925;28;20040;-67
2023/08/21 06:53:09;;;;;;;16.33;8.45;;;;;;;31.81;51.76;97277.50;5033819;28;20026;-67
2023/08/21 06:55:34;;;;;;;16.88;8.00;;;;;;;32.57;50.49;97287.88;5034256;28;20033;-67
2023/08/21 06:57:59;;;;;;;11.20;6.38;;;;;;;33.75;47.48;97281.47;5033835;28;20033;-67
2023/08/21 07:00:25;;;;;;;12.85;8.18;;;;;;;31.94;50.04;97282.00;5033866;28;20036;-66
2023/08/21 07:02:51;;;;;;;13.73;7.35;;;;;;;32.24;51.20;97282.63;5033329;28;20487;-66
2023/08/21 07:05:17;;;;;;;11.98;6.40;;;;;;;33.36;48.04;97281.25;5033790;28;20033;-67
2023/08/21 07:07:42;;;;;;;13.02;7.15;;;;;;;33.25;47.85;97279.91;5033825;28;20037;-67
2023/08/21 07:10:08;;;;;;;10.85;7.15;;;;;;;33.94;46.03;97283.88;5032731;28;20041;-66
2023/08/21 07:12:33;;;;;;;14.48;9.02;;;;;;;30.93;53.65;97278.56;5033393;28;20104;-67
2023/08/21 07:14:59;;;;;;;12.50;9.20;;;;;;;29.42;63.66;97275.19;5033699;28;20044;-67
2023/08/21 07:17:24;;;;;;;13.15;7.22;;;;;;;31.49;56.57;97270.91;5033555;28;20059;-67
2023/08/21 07:19:52;;;;;;;11.57;7.90;;;;;;;32.92;50.87;97281.22;5033578;28;20533;-67
2023/08/21 07:22:18;;;;;;;11.27;6.93;;;;;;;34.53;46.41;97283.00;5033198;28;20083;-68
2023/08/21 07:24:43;;;;;;;12.57;6.45;;;;;;;35.64;42.21;97288.34;5033274;28;20029;-67
2023/08/21 07:27:08;;;;;;;13.05;7.05;;;;;;;35.74;42.72;97292.47;5033223;28;20030;-68
2023/08/21 07:29:34;;;;;;;12.65;6.55;;;;;;;37.22;40.17;97298.03;5033319;28;20041;-67
2023/08/21 07:32:01;;;;;;;8.32;6.57;;;;;;;37.03;39.53;97300.81;5033159;28;20029;-67
2023/08/21 07:34:26;;;;;;;10.77;6.43;;;;;;;37.49;38.42;97299.84;5033023;28;20033;-67
2023/08/21 07:36:52;;;;;;;11.13;7.05;;;;;;;35.78;41.31;97295.03;5033782;28;20036;-67
2023/08/21 07:39:17;;;;;;;13.88;7.80;;;;;;;32.81;47.92;97286.00;5034017;28;20036;-67
2023/08/21 07:41:43;;;;;;;15.47;7.60;;;;;;;33.48;47.80;97292.16;5033020;28;20033;-67
2023/08/21 07:44:08;;;;;;;12.23;6.93;;;;;;;33.58;47.87;97289.13;5031217;28;20379;-67
2023/08/21 07:46:33;;;;;;;12.50;7.22;;;;;;;32.77;50.27;97286.22;5032789;28;20055;-67
2023/08/21 07:48:59;;;;;;;16.23;7.50;;;;;;;34.00;48.08;97288.28;5032482;28;20068;-66
2023/08/21 07:51:24;;;;;;;13.85;8.02;;;;;;;34.63;46.78;97287.16;5031777;28;20037;-67
2023/08/21 07:53:49;;;;;;;15.93;8.45;;;;;;;34.48;47.17;97292.28;5031217;28;20037;-67
2023/08/21 07:56:15;;;;;;;12.27;7.30;;;;;;;34.52;47.56;97290.00;5032689;28;20096;-67
2023/08/21 07:58:40;;;;;;;11.48;7.57;;;;;;;33.45;50.51;97287.50;5032641;28;20030;-67
2023/08/21 08:01:05;;;;;;;12.65;8.48;;;;;;;34.31;47.71;97297.19;5033299;28;20035;-67
2023/08/21 08:03:31;;;;;;;14.82;8.07;;;;;;;34.65;47.10;97290.25;5032389;28;20033;-67
2023/08/21 08:05:57;;;;;;;12.90;8.07;;;;;;;34.74;46.02;97283.56;5032950;28;20045;-67
2023/08/21 08:08:22;;;;;;;16.13;8.23;;;;;;;34.68;46.18;97296.97;5032999;28;20026;-68
2023/08/21 08:10:48;;;;;;;16.88;8.38;;;;;;;34.65;46.31;97298.78;5032669;28;20033;-68
2023/08/21 08:13:13;;;;;;;13.13;8.38;;;;;;;33.46;47.52;97286.22;5032723;28;20086;-69
2023/08/21 08:15:39;;;;;;;11.07;8.18;;;;;;;34.22;47.37;97292.50;5033894;28;20033;-68
2023/08/21 08:18:07;;;;;;;12.80;8.43;;;;;;;34.88;45.25;97286.66;5033094;28;20181;-67
2023/08/21 08:20:32;;;;;;;13.88;8.27;;;;;;;34.63;46.08;97290.00;5032483;28;20033;-67
2023/08/21 08:22:58;;;;;;;12.60;7.65;;;;;;;34.19;47.15;97294.31;5034803;28;20021;-68
2023/08/21 08:25:23;;;;;;;12.50;7.65;;;;;;;35.01;45.00;97293.38;5034800;28;20051;-69
2023/08/21 08:27:49;;;;;;;12.38;7.68;;;;;;;35.40;44.72;97298.28;5034441;28;20033;-66
2023/08/21 08:30:14;;;;;;;12.45;7.57;;;;;;;34.65;46.28;97298.00;5033948;28;20033;-66
2023/08/21 08:32:44;;;;;;;14.35;8.57;;;;;;;34.89;45.58;97293.91;5033313;28;20037;-67
2023/08/21 08:35:12;;;;;;;17.02;10.20;;;;;;;35.02;44.72;97297.00;5033310;28;20029;-67
2023/08/21 08:37:37;;;;;;;13.48;8.77;;;;;;;35.49;44.28;97294.38;5032934;28;20492;-66
2023/08/21 08:40:03;;;;;;;19.35;8.25;;;;;;;35.44;44.37;97300.84;5032381;28;20159;-67
2023/08/21 08:42:29;;;;;;;11.02;7.95;;;;;;;36.31;42.66;97300.78;5032106;28;20022;-66
2023/08/21 08:44:56;;;;;;;15.77;8.75;;;;;;;35.07;44.41;97298.28;5032502;28;20411;-67
2023/08/21 08:47:23;;;;;;;13.00;7.72;;;;;;;35.52;44.10;97292.53;5032199;28;20029;-67
2023/08/21 08:49:50;;;;;;;12.18;8.23;;;;;;;35.09;44.81;97292.84;5032007;28;20390;-66
2023/08/21 08:52:17;;;;;;;15.10;10.25;;;;;;;34.90;45.43;97298.28;5032092;28;20029;-67
2023/08/21 08:54:43;;;;;;;15.20;8.20;;;;;;;34.63;45.74;97290.00;5032074;28;20068;-67
2023/08/21 08:57:08;;;;;;;17.35;9.75;;;;;;;34.93;44.88;97291.56;5032498;28;20029;-67
2023/08/21 08:59:34;;;;;;;12.48;8.98;;;;;;;34.27;47.08;97284.00;5031960;28;20041;-67
2023/08/21 09:02:00;;;;;;;10.73;8.52;;;;;;;34.27;47.48;97289.69;5030885;28;20039;-67
2023/08/21 09:04:25;;;;;;;12.50;8.68;;;;;;;34.02;47.69;97285.72;5032926;28;20510;-67
2023/08/21 09:06:50;;;;;;;14.93;9.25;;;;;;;33.62;48.89;97289.63;5033195;28;20030;-69
2023/08/21 09:09:16;;;;;;;22.30;10.30;;;;;;;33.42;49.04;97288.53;5032814;28;20555;-69
2023/08/21 09:11:43;;;;;;;16.98;9.90;;;;;;;33.28;49.04;97284.56;5031490;28;20030;-68
2023/08/21 09:14:10;;;;;;;14.10;9.80;;;;;;;33.44;49.32;97274.59;5031851;28;20100;-68
2023/08/21 09:16:35;;;;;;;15.00;9.07;;;;;;;34.33;47.70;97274.72;5034220;28;20378;-68
2023/08/21 09:19:00;;;;;;;14.88;9.10;;;;;;;34.34;46.97;97279.09;5033132;28;20216;-69
2023/08/21 09:21:28;;;;;;;14.55;9.45;;;;;;;33.99;47.79;97275.38;5031763;28;20034;-69
2023/08/21 09:23:58;;;;;;;14.35;7.90;;;;;;;34.91;45.65;97274.25;5031699;28;20104;-69
2023/08/21 09:26:24;;;;;;;15.98;8.45;;;;;;;35.17;44.48;97280.41;5031959;28;20033;-69
2023/08/21 09:28:51;;;;;;;13.68;8.50;;;;;;;35.36;44.09;97279.88;5031912;28;20092;-69
2023/08/21 09:31:23;;;;;;;18.65;7.90;;;;;;;34.98;44.78;97273.72;5032049;28;20037;-69
2023/08/21 09:34:07;;;;;;;11.93;8.15;;;;;;;34.82;44.41;97275.28;5031477;28;20367;-68
2023/08/21 09:36:33;;;;;;;13.48;7.47;;;;;;;35.10;44.10;97269.56;5031840;28;20418;-68
2023/08/21 09:38:59;;;;;;;13.05;7.70;;;;;;;35.31;43.65;97269.28;5031579;28;20033;-68
2023/08/21 09:41:25;;;;;;;15.35;7.97;;;;;;;34.87;43.69;97270.88;5029871;28;20033;-69
2023/08/21 09:43:51;;;;;;;13.77;7.30;;;;;;;34.95;44.70;97263.38;5031163;28;20029;-68
2023/08/21 09:46:34;;;;;;;16.33;6.70;;;;;;;34.41;44.72;97265.16;5031823;28;20215;-68
2023/08/21 09:49:02;;;;;;;11.45;7.18;;;;;;;35.14;43.82;97255.06;5030869;28;20030;-67
2023/08/21 09:51:28;;;;;;;11.30;7.05;;;;;;;35.58;43.06;97262.75;5031699;28;20502;-67
2023/08/21 09:53:55;;;;;;;13.65;6.78;;;;;;;35.77;42.24;97257.25;5031411;28;20105;-68
2023/08/21 09:56:20;;;;;;;11.57;7.78;;;;;;;34.33;45.44;97247.03;5031233;28;20036;-67
2023/08/21 09:58:50;;;;;;;12.60;7.05;;;;;;;35.04;44.08;97255.34;5031558;28;20041;-69
2023/08/21 10:01:20;;;;;;;13.27;7.93;;;;;;;34.62;44.72;97245.75;5031589;28;20030;-69
2023/08/21 10:03:47;;;;;;;13.43;7.38;;;;;;;34.67;45.26;97242.16;5031755;28;20030;-69
2023/08/21 10:06:18;;;;;;;9.15;7.82;;;;;;;34.58;45.68;97245.25;5030351;28;20025;-69
2023/08/21 10:08:48;;;;;;;14.27;7.85;;;;;;;34.77;45.88;97239.84;5031550;28;20037;-69
2023/08/21 10:11:14;;;;;;;14.82;8.48;;;;;;;35.08;44.88;97242.91;5031659;28;20482;-69
2023/08/21 10:13:40;;;;;;;13.95;8.30;;;;;;;34.89;44.86;97243.44;5033441;28;20064;-67
2023/08/21 10:16:07;;;;;;;17.75;8.20;;;;;;;34.52;45.08;97243.69;5035009;28;20036;-68
2023/08/21 10:18:35;;;;;;;10.25;7.93;;;;;;;34.32;45.88;97233.34;5036149;28;20391;-69
2023/08/21 10:21:18;;;;;;;13.63;7.75;;;;;;;33.77;47.56;97232.69;5033446;28;20105;-69
2023/08/21 10:23:51;;;;;;;12.55;7.68;;;;;;;34.07;46.54;97225.28;5035007;28;20056;-68
2023/08/21 10:26:22;;;;;;;12.57;7.93;;;;;;;34.15;46.11;97227.63;5035868;28;20111;-69
2023/08/21 10:28:49;;;;;;;15.88;7.35;;;;;;;34.36;46.05;97228.16;5034664;28;20152;-69
2023/08/21 10:31:28;;;;;;;15.98;7.55;;;;;;;34.47;46.00;97226.13;5034808;28;20025;-70
2023/08/21 10:33:54;;;;;;;13.93;7.05;;;;;;;34.56;45.80;97235.69;5034303;28;20105;-69
2023/08/21 10:36:38;;;;;;;11.32;7.00;;;;;;;34.53;45.77;97226.13;5034605;28;20445;-69
2023/08/21 10:39:04;;;;;;;11.43;7.05;;;;;;;34.90;45.84;97218.63;5034736;28;20038;-70
2023/08/21 10:41:30;;;;;;;12.30;7.72;;;;;;;34.47;46.32;97225.34;5033931;28;20029;-69
2023/08/21 10:43:55;;;;;;;13.50;8.02;;;;;;;33.99;47.92;97218.53;5035582;28;20041;-69
2023/08/21 10:46:21;;;;;;;13.52;7.90;;;;;;;34.17;47.67;97222.19;5035124;28;20481;-69
2023/08/21 10:48:46;;;;;;;11.45;7.72;;;;;;;34.35;46.97;97220.94;5033265;28;20037;-69
2023/08/21 10:51:13;;;;;;;14.10;7.72;;;;;;;34.41;46.80;97218.88;5034571;28;20083;-69
2023/08/21 10:53:41;;;;;;;18.20;8.43;;;;;;;34.15;46.87;97221.94;5036073;28;20501;-70
2023/08/21 10:56:07;;;;;;;9.85;7.50;;;;;;;33.99;47.31;97212.09;5036061;28;20371;-68
2023/08/21 10:58:43;;;;;;;14.90;8.27;;;;;;;34.52;45.78;97218.09;5034153;28;20104;-69
2023/08/21 11:01:08;;;;;;;17.25;8.30;;;;;;;33.97;46.98;97211.81;5034357;28;20025;-67
2023/08/21 11:03:33;;;;;;;15.52;7.80;;;;;;;33.89;47.37;97200.97;5034083;28;20055;-68
2023/08/21 11:06:07;;;;;;;14.98;7.22;;;;;;;33.45;48.04;97213.69;5034383;28;20034;-68
2023/08/21 11:08:34;;;;;;;9.63;7.22;;;;;;;33.06;48.72;97211.41;5032888;28;20107;-68
2023/08/21 11:11:01;;;;;;;12.00;7.70;;;;;;;32.74;49.81;97208.63;5032990;28;20072;-68
2023/08/21 11:13:26;;;;;;;15.00;7.97;;;;;;;33.14;49.38;97209.66;5033844;28;20471;-69
2023/08/21 11:16:04;;;;;;;10.20;7.53;;;;;;;32.67;49.32;97209.09;5034005;28;20071;-68